Terminal Aerodrome Forecast
Issued by NWS Wilmington, NC

Current Version | Previous Version | Graphics & Text | Print | Product List | Glossary Off
Versions: 1 2 3 4 5 6 7 8 9 10 11 12 13

000
FTUS42 KILM 201100
TAFFLO
TAF
KFLO 201136Z 2012/2112 05005KT 6SM -RA SCT040 OVC070
     FM201600 05006KT 5SM -RA BKN025 OVC040
     FM201800 04007KT 4SM -RA BR BKN012 OVC020
     FM202100 04005KT 5SM BR BKN012 OVC020
     FM210800 04005KT 6SM BR BKN025 OVC070=

USA.gov is the U.S. government's official web portal to all federal, state and local government web resources and services.